Terminal Aerodrome Forecast
Issued by NWS

Current Version | Previous Version | Graphics & Text | Print | Product List | Glossary On
Versions: 1 2 3 4 5 6 7 8 9 10 11 12 13 14 15 16 17 18 19 20 21 22
230
FTUS41 KRLX 242326
TAFCKB
TAF
KCKB 242326Z 2500/2524 VRB03KT P6SM SCT070
     FM251000 VRB03KT 5SM BR BKN050
     FM251200 00000KT P6SM BKN050
     FM251600 21007KT P6SM BKN040
     FM252200 21007KT P6SM SCT120=

USA.gov is the U.S. government's official web portal to all federal, state and local government web resources and services.